Aérodrome :
LOGIN :

S'inscrire | Disclaimer

   EN    FR    IT 

 










Légende :    VFR   VFR Marginal   IFR   IFR Intensif   IFR Très Intensif
Visi : 
Plafond : 
>= 8 km
>= 3000ft
5 à 8 km
1000 à 3000 ft
1500m à 5 km
500 à 1000 ft
800 à 1500m
200 à 500 ft
< 800m
< 200 ft
Symboles :   Orages  Brouillard  Fortes neiges  Fortes précipitations  Vent > 20 kt
SIGMETs :   Divers  Orages  Givrage  Turbulence  Onde Orograph.  Cendres Volcan.






- Altitude de l'aérodrome : 16 ft
- Code IATA : SDR


LEXJ - Santander Cantabria

DERNIER METAR :
  • 190330Z 06012G26KT 360V110 7000 -RA SCT028 BKN032 10/07 Q1026

METARs EXPIRÉS :
  • 190300Z 08012G23KT 040V120 9999 SCT028 BKN032 10/07 Q1026
  • 190230Z 06015G26KT 020V100 9999 SCT020 BKN032 11/08 Q1025
  • 190200Z 07015G26KT 020V100 6000 -RA FEW014 BKN023 BKN032 10/08 Q1025
  • 190130Z 06016G27KT 020V100 5000 -RA FEW010 BKN016 BKN032 10/09 Q1024
  • 190109Z 32008KT 280V050 5000 RA SCT014 SCT020 BKN034 11/09 Q1023
  • 190100Z 30008KT 9999 -RA FEW014 SCT020 BKN036 11/09 Q1023

TAF TAF LEXJ
Valide du 19 à 03h jusqu'au 20 à 03h UTC


190200Z 1903/2003 06011KT 9999 BKN025 TX12/1915Z TN06/1908Z
TEMPO 1903/1906 3000 RA
PROB30
TEMPO 1906/1909 RA
TEMPO 1903/1921 06015G27KT



MET'MAP, la Météo Aéronautique d'un coup d'oeil ! - Copyright ORBIFLY Décembre 2007 - Disclaimer

ORBIFLY MET'MAP TEAM :

Programmation & Développement : Alexandra Zaïnal
Sur une idée originale de : Baudouin d'Aumeries
Assistance à la programmation : Marc-Olivier Méhu
Soutien technique & logistique : Manuel Goepfert

Contact : metmap@orbifly.com




SOURCES & CREDITS :

   NOAA